Terminal Aerodrome Forecast
Issued by NWS

Home | Current Version | Previous Version | Text Only | Print | Product List | Glossary On
Versions: 1 2 3 4 5 6 7 8 9 10 11 12 13 14 15 16
000
FTUS45 KTFX 311700
TAFGTF
TAF
KGTF 311739Z 3118/0118 33015KT 3/4SM -SN BR OVC004
      TEMPO 3118/3122 1 1/2SM -SN BR OVC012
     FM312200 36010KT 2SM -SN BR OVC012
     FM010100 VRB06KT P6SM BKN018
     FM011000 15006KT P6SM SKC
      TEMPO 0111/0115 2SM BR
     FM011600 15007KT P6SM BKN250=

USA.gov is the U.S. government's official web portal to all federal, state and local government web resources and services.